地図

経路データ

SID SEASON NUMBER BASIN SUBBASIN NAME ISO_TIME NATURE LAT LON WMO_WIND WMO_PRES WMO_AGENCY TRACK_TYPE DIST2LAND LANDFALL IFLAG USA_AGENCY USA_ATCF_ID USA_LAT USA_LON USA_RECORD USA_STATUS USA_WIND USA_PRES USA_SSHS USA_R34_NE USA_R34_SE USA_R34_SW USA_R34_NW USA_R50_NE USA_R50_SE USA_R50_SW USA_R50_NW USA_R64_NE USA_R64_SE USA_R64_SW USA_R64_NW USA_POCI USA_ROCI USA_RMW USA_EYE TOKYO_LAT TOKYO_LON TOKYO_GRADE TOKYO_WIND TOKYO_PRES TOKYO_R50_DIR TOKYO_R50_LONG TOKYO_R50_SHORT TOKYO_R30_DIR TOKYO_R30_LONG TOKYO_R30_SHORT TOKYO_LAND CMA_LAT CMA_LON CMA_CAT CMA_WIND CMA_PRES HKO_LAT HKO_LON HKO_CAT HKO_WIND HKO_PRES NEWDELHI_LAT NEWDELHI_LON NEWDELHI_GRADE NEWDELHI_WIND NEWDELHI_PRES NEWDELHI_CI NEWDELHI_DP NEWDELHI_POCI REUNION_LAT REUNION_LON REUNION_TYPE REUNION_WIND REUNION_PRES REUNION_TNUM REUNION_CI REUNION_RMW REUNION_R34_NE REUNION_R34_SE REUNION_R34_SW REUNION_R34_NW REUNION_R50_NE REUNION_R50_SE REUNION_R50_SW REUNION_R50_NW REUNION_R64_NE REUNION_R64_SE REUNION_R64_SW REUNION_R64_NW BOM_LAT BOM_LON BOM_TYPE BOM_WIND BOM_PRES BOM_TNUM BOM_CI BOM_RMW BOM_R34_NE BOM_R34_SE BOM_R34_SW BOM_R34_NW BOM_R50_NE BOM_R50_SE BOM_R50_SW BOM_R50_NW BOM_R64_NE BOM_R64_SE BOM_R64_SW BOM_R64_NW BOM_ROCI BOM_POCI BOM_EYE BOM_POS_METHOD BOM_PRES_METHOD NADI_LAT NADI_LON NADI_CAT NADI_WIND NADI_PRES WELLINGTON_LAT WELLINGTON_LON WELLINGTON_WIND WELLINGTON_PRES DS824_LAT DS824_LON DS824_STAGE DS824_WIND DS824_PRES TD9636_LAT TD9636_LON TD9636_STAGE TD9636_WIND TD9636_PRES TD9635_LAT TD9635_LON TD9635_WIND TD9635_PRES TD9635_ROCI NEUMANN_LAT NEUMANN_LON NEUMANN_CLASS NEUMANN_WIND NEUMANN_PRES MLC_LAT MLC_LON MLC_CLASS MLC_WIND MLC_PRES USA_GUST BOM_GUST BOM_GUST_PER REUNION_GUST REUNION_GUST_PER USA_SEAHGT USA_SEARAD_NE USA_SEARAD_SE USA_SEARAD_SW USA_SEARAD_NW STORM_SPEED STORM_DIR
1974222N13251 1974 72 EP MM HELGA 1974-08-10 00:00:00 TS 13.0600 -109.360 25 hurdat_epa main 841 841 O________OO___ hurdat_epa EP081974 13.0000 -109.100 TD 25 -1 13.0000 -109.100 TC 25 13.3000 -110.400 1 30 21 286
1974222N13251 1974 72 EP MM HELGA 1974-08-10 03:00:00 TS 13.3524 -110.402 main 882 882 P________PP___ EP081974 13.3186 -110.237 TD 25 -1 13.3186 -110.237 TC 25 13.4873 -111.065 1 30 21 286
1974222N13251 1974 72 EP MM HELGA 1974-08-10 06:00:00 TS 13.6138 -111.385 25 hurdat_epa main 941 941 O________OP___ hurdat_epa EP081974 13.6000 -111.300 TD 25 -1 13.6000 -111.300 TC 25 13.6690 -111.724 1 30 19 285
1974222N13251 1974 72 EP MM HELGA 1974-08-10 09:00:00 TS 13.8259 -112.254 main 995 995 P________PP___ EP081974 13.8221 -112.225 TD 25 -1 13.8221 -112.225 TC 25 13.8412 -112.371 1 30 16 284
1974222N13251 1974 72 EP MM HELGA 1974-08-10 12:00:00 TS 14.0000 -113.000 25 hurdat_epa main 1038 1038 O________OO___ hurdat_epa EP081974 14.0000 -113.000 TD 25 -1 14.0000 -113.000 TC 25 14.0000 -113.000 1 30 14 284
1974222N13251 1974 72 EP MM HELGA 1974-08-10 15:00:00 TS 14.1602 -113.637 main 1044 1044 P________PP___ EP081974 14.1646 -113.645 TD 30 -1 14.1646 -113.645 TC 30 14.1429 -113.605 1 31 12 284
1974222N13251 1974 72 EP MM HELGA 1974-08-10 18:00:00 TS 14.2944 -114.198 35 hurdat_epa main 1058 1058 O________OP___ hurdat_epa EP081974 14.3000 -114.200 TS 35 0 14.3000 -114.200 TC 35 14.2718 -114.188 1 32 11 283
1974222N13251 1974 72 EP MM HELGA 1974-08-10 21:00:00 TS 14.4038 -114.756 main 1076 1076 P________PP___ EP081974 14.4073 -114.758 TS 35 0 14.4073 -114.758 TC 35 14.3898 -114.752 1 33 11 281
1974222N13251 1974 72 EP MM HELGA 1974-08-11 00:00:00 TS 14.5000 -115.300 35 hurdat_epa main 1092 1092 O________OO___ hurdat_epa EP081974 14.5000 -115.300 TS 35 0 14.5000 -115.300 TC 35 14.5000 -115.300 2 35 11 281
1974222N13251 1974 72 EP MM HELGA 1974-08-11 03:00:00 TS 14.6029 -115.856 main 1116 1116 P________PP___ EP081974 14.5999 -115.858 TS 35 0 14.5999 -115.858 TC 35 14.6149 -115.848 2 35 11 281
1974222N13251 1974 72 EP MM HELGA 1974-08-11 06:00:00 TS 14.7044 -116.396 35 hurdat_epa main 1137 1137 O________OP___ hurdat_epa EP081974 14.7000 -116.400 TS 35 0 14.7000 -116.400 TC 35 14.7220 -116.380 2 35 10 281
1974222N13251 1974 72 EP MM HELGA 1974-08-11 09:00:00 TS 14.8095 -116.906 main 1160 1160 P________PP___ EP081974 14.8073 -116.908 TS 35 0 14.8073 -116.908 TC 35 14.8181 -116.898 2 35 10 281
1974222N13251 1974 72 EP MM HELGA 1974-08-11 12:00:00 TS 14.9000 -117.400 35 hurdat_epa main 1185 1185 O________OO___ hurdat_epa EP081974 14.9000 -117.400 TS 35 0 14.9000 -117.400 TC 35 14.9000 -117.400 2 35 10 279
1974222N13251 1974 72 EP MM HELGA 1974-08-11 15:00:00 TS 14.9555 -117.907 main 1212 1212 P________PP___ EP081974 14.9574 -117.908 TS 37 0 14.9574 -117.908 TC 37 14.9479 -117.906 2 36 10 276
1974222N13251 1974 72 EP MM HELGA 1974-08-11 18:00:00 TS 14.9970 -118.399 40 hurdat_epa main 1248 1248 O________OP___ hurdat_epa EP081974 15.0000 -118.400 TS 40 0 15.0000 -118.400 TC 40 14.9848 -118.396 2 37 9 275
1974222N13251 1974 72 EP MM HELGA 1974-08-11 21:00:00 TS 15.0338 -118.871 main 1286 1286 P________PP___ EP081974 15.0349 -118.873 TS 40 0 15.0349 -118.873 TC 40 15.0292 -118.862 2 38 9 277
1974222N13251 1974 72 EP MM HELGA 1974-08-12 00:00:00 TS 15.1000 -119.300 40 hurdat_epa main 1309 1309 O________OO___ hurdat_epa EP081974 15.1000 -119.300 TS 40 0 15.1000 -119.300 TC 40 15.1000 -119.300 2 40 8 285
1974222N13251 1974 72 EP MM HELGA 1974-08-12 03:00:00 TS 15.2337 -119.667 main 1325 1316 P________PP___ EP081974 15.2348 -119.658 TS 37 0 15.2348 -119.658 TC 37 15.2289 -119.704 2 38 8 293
1974222N13251 1974 72 EP MM HELGA 1974-08-12 06:00:00 TS 15.3969 -120.016 35 hurdat_epa main 1326 1324 O________OP___ hurdat_epa EP081974 15.4000 -120.000 TS 35 0 15.4000 -120.000 TC 35 15.3844 -120.080 2 37 8 294
1974222N13251 1974 72 EP MM HELGA 1974-08-12 09:00:00 TS 15.5556 -120.408 main 1335 1335 P________PP___ EP081974 15.5575 -120.400 TS 35 0 15.5575 -120.400 TC 35 15.5477 -120.441 2 36 8 292
1974222N13251 1974 72 EP MM HELGA 1974-08-12 12:00:00 TS 15.7000 -120.800 35 hurdat_epa main 1354 1354 O________OO___ hurdat_epa EP081974 15.7000 -120.800 TS 35 0 15.7000 -120.800 TC 35 15.7000 -120.800 2 35 8 290
1974222N13251 1974 72 EP MM HELGA 1974-08-12 15:00:00 TS 15.8104 -121.156 main 1374 1373 P________PP___ EP081974 15.8074 -121.150 TS 32 -1 15.8074 -121.150 TC 32 15.8224 -121.179 2 33 7 287
1974222N13251 1974 72 EP MM HELGA 1974-08-12 18:00:00 TS 15.9060 -121.512 30 hurdat_epa main 1387 1387 O________OP___ hurdat_epa EP081974 15.9000 -121.500 TD 30 -1 15.9000 -121.500 TC 30 15.9298 -121.558 2 32 7 286
1974222N13251 1974 72 EP MM HELGA 1974-08-12 21:00:00 TS 16.0164 -121.900 main 1409 1409 P________PP___ EP081974 16.0150 -121.892 TD 27 -1 16.0150 -121.892 TC 27 16.0224 -121.932 2 31 8 284
1974222N13251 1974 72 EP MM HELGA 1974-08-13 00:00:00 TS 16.1000 -122.300 25 hurdat_epa main 1431 1431 O________OO___ hurdat_epa EP081974 16.1000 -122.300 TD 25 -1 16.1000 -122.300 TC 25 16.1000 -122.300 1 30 8 279
1974222N13251 1974 72 EP MM HELGA 1974-08-13 03:00:00 TS 16.1306 -122.686 main 1462 1462 P________PP___ EP081974 16.1224 -122.693 TD 25 -1 16.1224 -122.693 TC 25 16.1633 -122.659 1 30 8 272
1974222N13251 1974 72 EP MM HELGA 1974-08-13 06:00:00 TS 16.1231 -123.082 25 hurdat_epa main 1493 1493 O________OP___ hurdat_epa EP081974 16.1000 -123.100 TD 25 -1 16.1000 -123.100 TC 25 16.2154 -123.010 1 30 8 267
1974222N13251 1974 72 EP MM HELGA 1974-08-13 09:00:00 TS 16.0961 -123.503 main 1525 1525 P________PP___ EP081974 16.0552 -123.540 TD 25 -1 16.0552 -123.540 TC 25 16.2598 -123.356 1 30 8 266
1974222N13251 1974 72 EP MM HELGA 1974-08-13 12:00:00 TS 16.0600 -123.940 25 hurdat_epa main 1558 O________OO___ hurdat_epa EP081974 16.0000 -124.000 TD 25 -1 16.0000 -124.000 TC 25 16.3000 -123.700 1 30 8 265

IBTrACS Databaseについて

本データベースは、米国NOAAが公開する1842年以降の世界の熱帯低気圧のベストトラックデータアーカイブInternational Best Track Archive for Climate Stewardship (IBTrACS)を、ウェブで閲覧しやすい形式に変換したものです。

最終更新日:2021-12-06